createdAt,value
2019-01-08T00:00:29.778Z,27.61
2019-01-08T00:01:29.687Z,27.53
2019-01-08T00:02:29.705Z,27.57
2019-01-08T00:03:29.818Z,27.44
2019-01-08T00:04:29.718Z,27.50
2019-01-08T00:05:29.759Z,27.40
2019-01-08T00:06:29.767Z,27.33
2019-01-08T00:07:29.799Z,27.34
2019-01-08T00:08:29.913Z,27.29
2019-01-08T00:09:29.858Z,27.25
2019-01-08T00:10:29.965Z,27.20
2019-01-08T00:11:29.984Z,27.15
2019-01-08T00:12:30.009Z,27.22
2019-01-08T00:13:30.015Z,27.08
2019-01-08T00:14:30.041Z,27.10
2019-01-08T00:15:29.929Z,27.08
2019-01-08T00:16:29.947Z,27.05
2019-01-08T00:17:29.982Z,26.98
2019-01-08T00:18:30.142Z,26.96
2019-01-08T00:19:30.044Z,26.96
2019-01-08T00:20:30.030Z,27.05
2019-01-08T00:21:30.172Z,26.93
2019-01-08T00:22:30.063Z,26.89
2019-01-08T00:23:30.306Z,26.93
2019-01-08T00:24:30.232Z,26.92
2019-01-08T00:25:30.245Z,26.85
2019-01-08T00:26:30.138Z,26.83
2019-01-08T00:27:30.149Z,26.82
2019-01-08T00:28:30.369Z,26.81
2019-01-08T00:29:30.320Z,26.71
2019-01-08T00:30:30.218Z,26.66
2019-01-08T00:31:30.231Z,26.67
2019-01-08T00:32:30.379Z,26.68
2019-01-08T00:33:30.499Z,26.71
2019-01-08T00:34:30.281Z,26.66
2019-01-08T00:35:30.311Z,26.70
2019-01-08T00:36:30.324Z,26.53
2019-01-08T00:37:30.364Z,26.61
2019-01-08T00:38:30.554Z,26.67
2019-01-08T00:39:30.440Z,26.64
2019-01-08T00:40:30.412Z,26.71
2019-01-08T00:41:30.537Z,26.68
2019-01-08T00:42:30.447Z,26.63
2019-01-08T00:43:30.728Z,26.61
2019-01-08T00:44:30.469Z,26.61
2019-01-08T00:45:30.614Z,26.63
2019-01-08T00:46:30.521Z,26.53
2019-01-08T00:47:30.531Z,26.48
2019-01-08T00:48:30.819Z,26.48
2019-01-08T00:49:30.573Z,26.48
2019-01-08T00:50:30.702Z,26.37
2019-01-08T00:51:30.599Z,26.39
2019-01-08T00:52:30.625Z,26.41
2019-01-08T00:53:30.907Z,26.30
2019-01-08T00:54:30.653Z,26.23
2019-01-08T00:55:30.711Z,26.15
2019-01-08T00:56:30.817Z,26.19
2019-01-08T00:57:30.833Z,26.16
2019-01-08T00:58:31.001Z,26.18
2019-01-08T00:59:30.735Z,26.15
2019-01-08T01:00:30.891Z,26.18
2019-01-08T01:01:30.912Z,26.10
2019-01-08T01:02:30.927Z,26.10
2019-01-08T01:03:31.046Z,26.04
2019-01-08T01:04:30.961Z,25.98
2019-01-08T01:05:30.855Z,25.98
2019-01-08T01:06:30.875Z,25.93
2019-01-08T01:07:30.888Z,25.95
2019-01-08T01:08:31.080Z,26.01
2019-01-08T01:09:30.933Z,26.08
2019-01-08T01:10:30.993Z,26.01
2019-01-08T01:11:30.962Z,26.08
2019-01-08T01:12:31.028Z,26.16
2019-01-08T01:13:31.046Z,26.06
2019-01-08T01:14:31.145Z,25.95
2019-01-08T01:15:31.029Z,26.01
2019-01-08T01:16:31.171Z,25.92
2019-01-08T01:17:31.191Z,25.85
2019-01-08T01:18:31.310Z,25.77
2019-01-08T01:19:31.234Z,25.83
2019-01-08T01:20:31.128Z,25.71
2019-01-08T01:21:31.270Z,25.71
2019-01-08T01:22:31.165Z,25.67
2019-01-08T01:23:31.284Z,25.59
2019-01-08T01:24:31.202Z,25.58
2019-01-08T01:25:31.219Z,25.58
2019-01-08T01:26:31.239Z,25.56
2019-01-08T01:27:31.262Z,25.51
2019-01-08T01:28:31.387Z,25.51
2019-01-08T01:29:31.412Z,25.37
2019-01-08T01:30:31.301Z,25.43
2019-01-08T01:31:31.443Z,25.49
2019-01-08T01:32:31.335Z,25.44
2019-01-08T01:33:31.507Z,25.44
2019-01-08T01:34:31.496Z,25.44
2019-01-08T01:35:31.518Z,25.41
2019-01-08T01:36:31.400Z,25.44
2019-01-08T01:37:31.556Z,25.40
2019-01-08T01:38:31.666Z,25.46
2019-01-08T01:39:31.461Z,25.43
2019-01-08T01:40:31.472Z,25.48
2019-01-08T01:41:31.500Z,25.46
2019-01-08T01:42:31.645Z,25.44
2019-01-08T01:43:31.717Z,25.49
2019-01-08T01:44:31.594Z,25.56
2019-01-08T01:45:31.691Z,25.66
2019-01-08T01:46:31.590Z,25.61
2019-01-08T01:47:31.729Z,25.67
2019-01-08T01:48:31.853Z,25.73
2019-01-08T01:49:31.764Z,25.71
2019-01-08T01:50:31.652Z,25.73
2019-01-08T01:51:31.669Z,25.77
2019-01-08T01:52:31.707Z,25.73
2019-01-08T01:53:31.819Z,25.71
2019-01-08T01:54:31.726Z,25.73
2019-01-08T01:55:31.752Z,25.74
2019-01-08T01:56:31.771Z,25.76
2019-01-08T01:57:31.777Z,25.74
2019-01-08T01:58:31.982Z,25.76
2019-01-08T01:59:31.946Z,25.77
2019-01-08T02:00:31.834Z,25.71
2019-01-08T02:01:31.910Z,25.71
2019-01-08T02:02:31.916Z,25.77
2019-01-08T02:03:32.020Z,25.71
2019-01-08T02:04:31.908Z,25.80
2019-01-08T02:05:31.929Z,25.74
2019-01-08T02:06:32.102Z,25.77
2019-01-08T02:07:31.960Z,25.68
2019-01-08T02:08:32.005Z,25.85
2019-01-08T02:09:32.014Z,25.89
2019-01-08T02:10:32.006Z,25.80
2019-01-08T02:11:32.135Z,25.89
2019-01-08T02:12:32.177Z,25.81
2019-01-08T02:13:32.064Z,25.78
2019-01-08T02:14:32.088Z,25.81
2019-01-08T02:15:32.229Z,25.85
2019-01-08T02:16:32.245Z,25.85
2019-01-08T02:17:32.145Z,25.78
2019-01-08T02:18:32.207Z,25.74
2019-01-08T02:19:32.182Z,25.76
2019-01-08T02:20:32.209Z,25.77
2019-01-08T02:21:32.354Z,25.80
2019-01-08T02:22:32.230Z,25.73
2019-01-08T02:23:32.372Z,25.73
2019-01-08T02:24:32.391Z,25.76
2019-01-08T02:25:32.405Z,25.71
2019-01-08T02:26:32.456Z,25.61
2019-01-08T02:27:32.356Z,25.61
2019-01-08T02:28:32.337Z,25.67
2019-01-08T02:29:32.366Z,25.62
2019-01-08T02:30:32.379Z,25.58
2019-01-08T02:31:32.450Z,25.58
2019-01-08T02:32:32.421Z,25.56
2019-01-08T02:33:32.429Z,25.56
2019-01-08T02:34:32.573Z,25.49
2019-01-08T02:35:32.583Z,25.51
2019-01-08T02:36:32.702Z,25.40
2019-01-08T02:37:32.490Z,25.39
2019-01-08T02:38:32.506Z,25.39
2019-01-08T02:39:32.547Z,25.41
2019-01-08T02:40:32.560Z,25.37
2019-01-08T02:41:32.852Z,25.25
2019-01-08T02:42:32.586Z,25.36
2019-01-08T02:43:32.612Z,25.30
2019-01-08T02:44:32.689Z,25.33
2019-01-08T02:45:32.659Z,25.33
2019-01-08T02:46:32.842Z,25.22
2019-01-08T02:47:32.680Z,25.18
2019-01-08T02:48:32.687Z,25.14
2019-01-08T02:49:32.724Z,25.22
2019-01-08T02:50:32.722Z,25.18
2019-01-08T02:51:32.981Z,25.21
2019-01-08T02:52:32.766Z,25.19
2019-01-08T02:53:32.786Z,25.18
2019-01-08T02:54:32.928Z,25.21
2019-01-08T02:55:32.815Z,25.21
2019-01-08T02:56:32.966Z,25.24
2019-01-08T02:57:32.858Z,25.24
2019-01-08T02:58:32.991Z,25.22
2019-01-08T02:59:33.010Z,25.22
2019-01-08T03:00:33.032Z,25.16
2019-01-08T03:01:33.201Z,25.18
2019-01-08T03:02:33.065Z,25.15
2019-01-08T03:03:32.959Z,25.14
2019-01-08T03:04:32.971Z,25.11
2019-01-08T03:05:33.122Z,25.19
2019-01-08T03:06:33.134Z,25.12
2019-01-08T03:07:33.036Z,25.07
2019-01-08T03:08:33.052Z,25.14
2019-01-08T03:09:33.190Z,25.11
2019-01-08T03:10:33.102Z,25.09
2019-01-08T03:11:33.279Z,25.09
2019-01-08T03:12:33.138Z,25.09
2019-01-08T03:13:33.133Z,25.09
2019-01-08T03:14:33.154Z,25.07
2019-01-08T03:15:33.391Z,25.11
2019-01-08T03:16:33.198Z,25.12
2019-01-08T03:17:33.212Z,25.03
2019-01-08T03:18:33.222Z,25.04
2019-01-08T03:19:33.368Z,24.99
2019-01-08T03:20:33.486Z,24.93
2019-01-08T03:21:33.277Z,24.96
2019-01-08T03:22:33.306Z,24.89
2019-01-08T03:23:33.317Z,24.82
2019-01-08T03:24:33.333Z,24.88
2019-01-08T03:25:33.518Z,24.96
2019-01-08T03:26:33.362Z,24.93
2019-01-08T03:27:33.507Z,24.86
2019-01-08T03:28:33.391Z,24.92
2019-01-08T03:29:33.956Z,24.81
2019-01-08T03:30:33.535Z,24.85
2019-01-08T03:31:33.446Z,24.84
2019-01-08T03:32:33.490Z,24.78
2019-01-08T03:33:33.534Z,24.78
2019-01-08T03:34:33.499Z,24.81
2019-01-08T03:35:33.632Z,24.75
2019-01-08T03:36:33.579Z,24.74
2019-01-08T03:37:33.684Z,24.65
2019-01-08T03:38:33.579Z,24.62
2019-01-08T03:39:33.584Z,24.66
2019-01-08T03:40:33.832Z,24.63
2019-01-08T03:41:33.753Z,24.61
2019-01-08T03:42:33.770Z,24.66
2019-01-08T03:43:33.790Z,24.69
2019-01-08T03:44:33.802Z,24.66
2019-01-08T03:45:33.973Z,24.66
2019-01-08T03:46:33.761Z,24.65
2019-01-08T03:47:33.738Z,24.63
2019-01-08T03:48:33.756Z,24.69
2019-01-08T03:49:33.774Z,24.65
2019-01-08T03:50:33.966Z,24.58
2019-01-08T03:51:33.802Z,24.62
2019-01-08T03:52:33.858Z,24.65
2019-01-08T03:53:33.836Z,24.61
2019-01-08T03:54:34.056Z,24.65
2019-01-08T03:55:34.101Z,24.51
2019-01-08T03:56:34.011Z,24.56
2019-01-08T03:57:34.029Z,24.55
2019-01-08T03:58:33.923Z,24.47
2019-01-08T03:59:41.720Z,24.53
2019-01-08T04:00:34.064Z,24.47
2019-01-08T04:01:33.975Z,24.41
2019-01-08T04:02:33.998Z,24.43
2019-01-08T04:03:34.012Z,24.44
2019-01-08T04:04:34.035Z,24.38
2019-01-08T04:05:34.146Z,24.38
2019-01-08T04:06:34.191Z,24.47
2019-01-08T04:07:34.074Z,24.38
2019-01-08T04:08:34.099Z,24.36
2019-01-08T04:09:34.239Z,24.41
2019-01-08T04:10:34.287Z,24.34
2019-01-08T04:11:34.150Z,24.36
2019-01-08T04:12:34.200Z,24.38
2019-01-08T04:13:34.313Z,24.34
2019-01-08T04:14:34.254Z,24.37
2019-01-08T04:15:34.398Z,24.25
2019-01-08T04:16:34.291Z,24.31
2019-01-08T04:17:34.275Z,24.26
2019-01-08T04:18:34.394Z,24.31
2019-01-08T04:19:34.409Z,24.31
2019-01-08T04:20:34.477Z,24.24
2019-01-08T04:21:34.323Z,24.26
2019-01-08T04:22:34.462Z,24.22
2019-01-08T04:23:34.483Z,24.32
2019-01-08T04:24:34.501Z,24.25
2019-01-08T04:25:34.440Z,24.31
2019-01-08T04:26:34.539Z,24.19
2019-01-08T04:27:34.422Z,24.28
2019-01-08T04:28:34.543Z,24.22
2019-01-08T04:29:34.586Z,24.24
2019-01-08T04:30:34.486Z,24.21
2019-01-08T04:31:34.502Z,24.24
2019-01-08T04:32:34.640Z,24.25
2019-01-08T04:33:34.640Z,24.29
2019-01-08T04:34:34.672Z,24.31
2019-01-08T04:35:34.552Z,24.37
2019-01-08T04:36:34.708Z,24.36
2019-01-08T04:37:34.724Z,24.34
2019-01-08T04:38:34.840Z,24.48
2019-01-08T04:39:34.754Z,24.43
2019-01-08T04:40:34.651Z,24.38
2019-01-08T04:41:34.793Z,24.41
2019-01-08T04:42:34.693Z,24.43
2019-01-08T04:43:34.813Z,24.29
2019-01-08T04:44:34.748Z,24.31
2019-01-08T04:45:34.727Z,24.24
2019-01-08T04:46:34.747Z,24.14
2019-01-08T04:47:34.811Z,24.18
2019-01-08T04:48:34.909Z,24.06
2019-01-08T04:49:34.837Z,24.07
2019-01-08T04:50:34.967Z,24.04
2019-01-08T04:51:34.958Z,24.01
2019-01-08T04:52:34.875Z,24.04
2019-01-08T04:53:34.998Z,23.95
2019-01-08T04:54:34.886Z,23.95
2019-01-08T04:55:34.903Z,23.91
2019-01-08T04:56:34.951Z,23.79
2019-01-08T04:57:34.932Z,23.74
2019-01-08T04:58:35.278Z,23.82
2019-01-08T04:59:34.975Z,23.74
2019-01-08T05:00:35.002Z,23.77
2019-01-08T05:01:35.131Z,23.82
2019-01-08T05:02:35.152Z,23.77
2019-01-08T05:03:35.214Z,23.85
2019-01-08T05:04:35.066Z,23.82
2019-01-08T05:05:35.074Z,23.81
2019-01-08T05:06:35.089Z,23.82
2019-01-08T05:07:35.120Z,23.73
2019-01-08T05:08:35.282Z,23.81
2019-01-08T05:09:35.269Z,23.74
2019-01-08T05:10:35.180Z,23.77
2019-01-08T05:11:35.306Z,23.82
2019-01-08T05:12:35.201Z,23.91
2019-01-08T05:13:35.310Z,23.89
2019-01-08T05:14:35.365Z,23.95
2019-01-08T05:15:35.376Z,24.00
2019-01-08T05:16:35.259Z,23.91
2019-01-08T05:17:35.294Z,23.95
2019-01-08T05:18:35.475Z,23.96
2019-01-08T05:19:35.304Z,23.92
2019-01-08T05:20:35.462Z,23.89
2019-01-08T05:21:35.341Z,23.82
2019-01-08T05:22:35.477Z,23.81
2019-01-08T05:23:35.503Z,23.82
2019-01-08T05:24:35.527Z,23.85
2019-01-08T05:25:35.424Z,23.86
2019-01-08T05:26:35.428Z,23.84
2019-01-08T05:27:35.559Z,23.84
2019-01-08T05:28:35.470Z,23.79
2019-01-08T05:29:35.490Z,23.77
2019-01-08T05:30:35.500Z,23.79
2019-01-08T05:31:35.517Z,23.81
2019-01-08T05:32:35.760Z,23.82
2019-01-08T05:33:35.552Z,23.88
2019-01-08T05:34:35.574Z,23.84
2019-01-08T05:35:35.716Z,23.85
2019-01-08T05:36:35.727Z,23.91
2019-01-08T05:37:35.843Z,23.86
2019-01-08T05:38:35.642Z,24.04
2019-01-08T05:39:35.661Z,24.01
2019-01-08T05:40:35.688Z,24.03
2019-01-08T05:41:35.694Z,24.10
2019-01-08T05:42:35.804Z,24.22
2019-01-08T05:43:35.734Z,24.16
2019-01-08T05:44:35.866Z,24.22
2019-01-08T05:45:35.769Z,24.22
2019-01-08T05:46:35.894Z,24.21
2019-01-08T05:47:35.932Z,24.21
2019-01-08T05:48:35.929Z,24.28
2019-01-08T05:49:35.852Z,24.21
2019-01-08T05:50:35.851Z,24.21
2019-01-08T05:51:35.854Z,24.28
2019-01-08T05:52:36.034Z,24.28
2019-01-08T05:53:35.878Z,24.32
2019-01-08T05:54:35.907Z,24.38
2019-01-08T05:55:36.049Z,24.40
2019-01-08T05:56:35.937Z,24.46
2019-01-08T05:57:36.237Z,24.37
2019-01-08T05:58:36.104Z,24.36
2019-01-08T05:59:35.993Z,24.31
2019-01-08T06:00:36.130Z,24.48
2019-01-08T06:01:36.021Z,24.41
2019-01-08T06:02:36.099Z,24.44
2019-01-08T06:03:36.060Z,24.41
2019-01-08T06:04:36.075Z,24.41
2019-01-08T06:05:36.135Z,24.40
2019-01-08T06:06:36.105Z,24.40
2019-01-08T06:07:36.228Z,24.40
2019-01-08T06:08:36.141Z,24.29
2019-01-08T06:09:36.163Z,24.24
2019-01-08T06:10:36.179Z,24.32
2019-01-08T06:11:36.325Z,24.32
2019-01-08T06:12:36.374Z,24.21
2019-01-08T06:13:36.351Z,24.24
2019-01-08T06:14:36.901Z,24.14
2019-01-08T06:15:36.269Z,24.22
2019-01-08T06:16:36.285Z,24.28
2019-01-08T06:17:36.353Z,24.18
2019-01-08T06:18:36.307Z,24.24
2019-01-08T06:19:36.457Z,24.29
2019-01-08T06:20:36.336Z,24.26
2019-01-08T06:21:36.357Z,24.18
2019-01-08T06:22:36.555Z,24.14
2019-01-08T06:23:36.520Z,24.19
2019-01-08T06:24:36.410Z,24.18
2019-01-08T06:25:36.555Z,24.19
2019-01-08T06:26:36.509Z,24.16
2019-01-08T06:27:36.613Z,24.18
2019-01-08T06:28:36.485Z,24.18
2019-01-08T06:29:36.508Z,24.16
2019-01-08T06:30:36.520Z,24.14
2019-01-08T06:31:36.654Z,24.25
2019-01-08T06:32:36.773Z,24.22
2019-01-08T06:33:36.580Z,24.19
2019-01-08T06:34:36.707Z,24.18
2019-01-08T06:35:36.605Z,24.16
2019-01-08T06:36:36.739Z,24.13
2019-01-08T06:37:36.790Z,24.10
2019-01-08T06:38:36.660Z,24.09
2019-01-08T06:39:36.790Z,24.03
2019-01-08T06:40:36.684Z,24.03
2019-01-08T06:41:36.824Z,24.00
2019-01-08T06:42:36.812Z,23.99
2019-01-08T06:43:36.860Z,23.89
2019-01-08T06:44:36.748Z,23.91
2019-01-08T06:45:36.810Z,23.82
2019-01-08T06:46:42.901Z,23.82
2019-01-08T06:47:36.855Z,23.81
2019-01-08T06:48:36.947Z,23.81
2019-01-08T06:49:36.836Z,23.79
2019-01-08T06:50:36.976Z,23.70
2019-01-08T06:51:36.869Z,23.66
2019-01-08T06:52:37.110Z,23.76
2019-01-08T06:53:36.909Z,23.70
2019-01-08T06:54:36.921Z,23.67
2019-01-08T06:55:37.060Z,23.70
2019-01-08T06:56:36.946Z,23.67
2019-01-08T06:57:37.223Z,23.69
2019-01-08T06:58:37.113Z,23.69
2019-01-08T06:59:36.998Z,23.59
2019-01-08T07:00:37.031Z,23.64
2019-01-08T07:01:37.159Z,23.69
2019-01-08T07:02:38.316Z,23.62
2019-01-08T07:03:37.076Z,23.69
2019-01-08T07:04:37.100Z,23.63
2019-01-08T07:05:37.225Z,23.54
2019-01-08T07:06:37.129Z,23.62
2019-01-08T07:07:37.362Z,23.52
2019-01-08T07:08:37.146Z,23.63
2019-01-08T07:09:37.171Z,23.56
2019-01-08T07:10:37.201Z,23.70
2019-01-08T07:11:37.216Z,23.67
2019-01-08T07:12:37.268Z,23.67
2019-01-08T07:13:37.225Z,23.66
2019-01-08T07:14:37.253Z,23.66
2019-01-08T07:15:37.399Z,23.64
2019-01-08T07:16:37.285Z,23.66
2019-01-08T07:17:37.479Z,23.58
2019-01-08T07:18:37.319Z,23.59
2019-01-08T07:19:37.460Z,23.55
2019-01-08T07:20:37.361Z,23.48
2019-01-08T07:21:37.360Z,23.59
2019-01-08T07:22:37.488Z,23.51
2019-01-08T07:23:37.394Z,23.45
2019-01-08T07:24:37.433Z,23.34
2019-01-08T07:25:42.153Z,23.34
2019-01-08T07:26:37.444Z,23.14
2019-01-08T07:27:37.644Z,23.13
2019-01-08T07:28:37.483Z,23.08
2019-01-08T07:29:37.498Z,23.10
2019-01-08T07:30:41.745Z,23.13
2019-01-08T07:31:37.588Z,23.04
2019-01-08T07:32:37.679Z,23.08
2019-01-08T07:33:37.560Z,23.07
2019-01-08T07:34:37.625Z,23.13
2019-01-08T07:35:37.615Z,23.11
2019-01-08T07:36:37.664Z,23.14
2019-01-08T07:37:37.640Z,23.06
2019-01-08T07:38:37.923Z,23.11
2019-01-08T07:39:37.659Z,23.11
2019-01-08T07:40:37.804Z,23.10
2019-01-08T07:41:37.697Z,23.06
2019-01-08T07:42:37.716Z,23.21
2019-01-08T07:43:37.956Z,23.23
2019-01-08T07:44:37.743Z,23.18
2019-01-08T07:45:37.888Z,23.23
2019-01-08T07:46:37.780Z,23.32
2019-01-08T07:47:37.807Z,23.20
2019-01-08T07:48:37.911Z,23.14
2019-01-08T07:49:37.831Z,23.21
2019-01-08T07:50:37.857Z,23.17
2019-01-08T07:51:37.862Z,23.23
2019-01-08T07:52:37.878Z,23.10
2019-01-08T07:53:37.947Z,23.01
2019-01-08T07:54:37.913Z,23.01
2019-01-08T07:55:37.934Z,22.95
2019-01-08T07:56:37.953Z,22.89
2019-01-08T07:57:38.075Z,22.95
2019-01-08T07:58:37.979Z,22.92
2019-01-08T07:59:38.118Z,22.95
2019-01-08T08:00:38.014Z,22.92
2019-01-08T08:01:38.027Z,22.83
2019-01-08T08:02:38.159Z,22.88
2019-01-08T08:03:38.187Z,22.88
2019-01-08T08:04:38.121Z,22.93
2019-01-08T08:05:38.108Z,22.96
2019-01-08T08:06:38.115Z,22.96
2019-01-08T08:07:38.197Z,22.98
2019-01-08T08:08:38.148Z,22.88
2019-01-08T08:09:38.283Z,22.84
2019-01-08T08:10:38.329Z,22.91
2019-01-08T08:11:38.313Z,22.83
2019-01-08T08:12:38.330Z,22.74
2019-01-08T08:13:38.353Z,22.77
2019-01-08T08:14:38.233Z,22.73
2019-01-08T08:15:38.434Z,22.74
2019-01-08T08:16:38.401Z,22.73
2019-01-08T08:17:38.291Z,22.73
2019-01-08T08:18:38.323Z,22.73
2019-01-08T08:19:38.446Z,22.76
2019-01-08T08:20:38.396Z,22.81
2019-01-08T08:21:38.484Z,22.88
2019-01-08T08:22:38.497Z,22.92
2019-01-08T08:23:38.515Z,22.99
2019-01-08T08:24:38.428Z,23.04
2019-01-08T08:25:38.580Z,23.07
2019-01-08T08:26:38.437Z,23.07
2019-01-08T08:27:38.463Z,23.08
2019-01-08T08:28:38.590Z,23.13
2019-01-08T08:29:38.487Z,23.11
2019-01-08T08:30:38.607Z,23.08
2019-01-08T08:31:38.543Z,23.08
2019-01-08T08:32:38.584Z,23.20
2019-01-08T08:33:38.672Z,23.07
2019-01-08T08:34:38.618Z,23.26
2019-01-08T08:35:38.811Z,23.17
2019-01-08T08:36:38.593Z,23.23
2019-01-08T08:37:38.617Z,23.23
2019-01-08T08:38:38.623Z,23.21
2019-01-08T08:39:38.650Z,23.29
2019-01-08T08:40:38.938Z,23.37
2019-01-08T08:41:38.677Z,23.45
2019-01-08T08:42:38.696Z,23.45
2019-01-08T08:43:38.719Z,23.52
2019-01-08T08:44:38.858Z,23.62
2019-01-08T08:45:38.905Z,23.66
2019-01-08T08:46:38.895Z,23.67
2019-01-08T08:47:38.823Z,23.59
2019-01-08T08:48:38.808Z,23.67
2019-01-08T08:49:38.812Z,23.67
2019-01-08T08:50:39.001Z,23.82
2019-01-08T08:51:38.840Z,23.81
2019-01-08T08:52:38.988Z,23.91
2019-01-08T08:53:39.004Z,24.00
2019-01-08T08:54:38.901Z,24.03
2019-01-08T08:55:40.125Z,24.16
2019-01-08T08:56:39.053Z,24.16
2019-01-08T08:57:39.073Z,24.24
2019-01-08T08:58:38.964Z,24.26
2019-01-08T08:59:38.980Z,24.32
2019-01-08T09:00:39.220Z,24.44
2019-01-08T09:01:39.011Z,24.51
2019-01-08T09:02:39.030Z,24.59
2019-01-08T09:03:39.060Z,24.66
2019-01-08T09:04:39.065Z,24.74
2019-01-08T09:05:39.232Z,24.79
2019-01-08T09:06:39.100Z,24.93
2019-01-08T09:07:39.109Z,24.93
2019-01-08T09:08:39.133Z,24.99
2019-01-08T09:09:39.141Z,25.01
2019-01-08T09:10:39.393Z,25.16
2019-01-08T09:11:39.180Z,25.14
2019-01-08T09:12:39.199Z,25.19
2019-01-08T09:13:39.221Z,25.25
2019-01-08T09:14:39.279Z,25.34
2019-01-08T09:15:39.347Z,25.54
2019-01-08T09:16:39.285Z,25.77
2019-01-08T09:17:39.295Z,25.99
2019-01-08T09:18:39.300Z,26.49
2019-01-08T09:19:39.327Z,26.71
2019-01-08T09:20:39.397Z,26.88
2019-01-08T09:21:39.484Z,26.98
2019-01-08T09:22:39.413Z,27.25
2019-01-08T09:23:39.406Z,27.57
2019-01-08T09:24:39.448Z,27.85
2019-01-08T09:25:39.443Z,28.18
2019-01-08T09:26:39.492Z,28.47
2019-01-08T09:27:39.520Z,28.90
2019-01-08T09:28:39.508Z,29.20
2019-01-08T09:29:39.555Z,29.50
2019-01-08T09:30:39.649Z,29.62
2019-01-08T09:31:39.654Z,29.79
2019-01-08T09:32:39.686Z,29.84
2019-01-08T09:33:39.709Z,30.02
2019-01-08T09:34:39.614Z,30.17
2019-01-08T09:35:39.623Z,30.27
2019-01-08T09:36:39.740Z,30.08
2019-01-08T09:37:39.788Z,29.95
2019-01-08T09:38:39.722Z,29.74
2019-01-08T09:39:39.698Z,29.83
2019-01-08T09:40:39.738Z,30.02
2019-01-08T09:41:39.947Z,30.43
2019-01-08T09:42:39.819Z,30.56
2019-01-08T09:43:39.778Z,30.89
2019-01-08T09:44:39.809Z,31.13
2019-01-08T09:45:39.946Z,31.23
2019-01-08T09:46:39.943Z,31.36
2019-01-08T09:47:39.993Z,31.72
2019-01-08T09:48:39.901Z,31.90
2019-01-08T09:49:39.912Z,32.27
2019-01-08T09:50:39.936Z,32.49
2019-01-08T09:51:40.000Z,32.75
2019-01-08T09:52:39.975Z,32.90
2019-01-08T09:53:39.992Z,33.04
2019-01-08T09:54:40.014Z,33.16
2019-01-08T09:55:40.030Z,33.26
2019-01-08T09:56:40.165Z,33.36
2019-01-08T09:57:40.072Z,33.60
2019-01-08T09:58:40.088Z,33.66
2019-01-08T09:59:40.249Z,33.81
2019-01-08T10:00:40.156Z,33.88
2019-01-08T10:01:40.259Z,34.00
2019-01-08T10:02:40.309Z,34.18
2019-01-08T10:03:40.225Z,34.29
2019-01-08T10:04:40.351Z,34.60
2019-01-08T10:05:40.252Z,34.78
2019-01-08T10:06:40.327Z,34.79
2019-01-08T10:07:40.417Z,34.76
2019-01-08T10:08:40.445Z,34.85
2019-01-08T10:09:40.356Z,34.96
2019-01-08T10:10:40.490Z,35.20
2019-01-08T10:11:40.561Z,35.39
2019-01-08T10:12:40.482Z,35.49
2019-01-08T10:13:40.434Z,35.66
2019-01-08T10:15:40.608Z,36.18
2019-01-08T10:16:40.729Z,36.11
2019-01-08T10:17:40.531Z,36.29
2019-01-08T10:18:40.559Z,36.47
2019-01-08T10:19:40.626Z,36.62
2019-01-08T10:20:40.607Z,36.66
2019-01-08T10:21:40.765Z,36.87
2019-01-08T10:22:40.657Z,36.75
2019-01-08T10:23:40.674Z,36.91
2019-01-08T10:24:40.692Z,36.97
2019-01-08T10:25:40.749Z,37.38
2019-01-08T10:26:40.861Z,37.43
2019-01-08T10:27:40.791Z,37.66
2019-01-08T10:28:40.815Z,37.90
2019-01-08T10:29:40.876Z,38.01
2019-01-08T10:30:40.903Z,38.22
2019-01-08T10:31:40.983Z,37.90
2019-01-08T10:32:40.900Z,37.64
2019-01-08T10:33:40.981Z,37.53
2019-01-08T10:34:41.071Z,37.47
2019-01-08T10:35:40.968Z,37.45
2019-01-08T10:36:40.998Z,37.48
2019-01-08T10:37:41.124Z,37.63
2019-01-08T10:38:41.052Z,37.73
2019-01-08T10:39:41.195Z,37.92
2019-01-08T10:40:41.104Z,38.16
2019-01-08T10:41:41.247Z,38.46
2019-01-08T10:42:41.271Z,38.76
2019-01-08T10:43:41.303Z,39.03
2019-01-08T10:44:41.321Z,39.22
2019-01-08T10:45:41.237Z,39.57
2019-01-08T10:46:41.253Z,39.56
2019-01-08T10:47:41.375Z,39.48
2019-01-08T10:48:41.314Z,39.52
2019-01-08T10:49:41.333Z,39.51
2019-01-08T10:50:41.478Z,39.32
2019-01-08T10:51:41.366Z,39.30
2019-01-08T10:52:41.494Z,39.57
2019-01-08T10:53:41.435Z,39.64
2019-01-08T10:54:41.480Z,39.88
2019-01-08T10:55:41.519Z,40.24
2019-01-08T10:56:41.561Z,40.59
2019-01-08T10:57:41.678Z,40.51
2019-01-08T10:58:41.550Z,40.44
2019-01-08T10:59:41.710Z,40.31
2019-01-08T11:00:41.697Z,40.08
2019-01-08T11:01:41.771Z,39.78
2019-01-08T11:02:41.887Z,39.71
2019-01-08T11:03:41.687Z,39.57
2019-01-08T11:04:41.845Z,39.59
2019-01-08T11:05:41.873Z,39.66
2019-01-08T11:06:41.892Z,39.64
2019-01-08T11:07:41.967Z,39.88
2019-01-08T11:08:41.832Z,40.36
2019-01-08T11:09:41.850Z,40.58
2019-01-08T11:10:42.007Z,40.90
2019-01-08T11:11:42.040Z,41.04
2019-01-08T11:12:41.987Z,41.12
2019-01-08T11:13:42.084Z,40.81
2019-01-08T11:14:42.267Z,40.92
2019-01-08T11:15:42.139Z,40.88
2019-01-08T11:16:42.174Z,40.90
2019-01-08T11:17:42.199Z,40.96
2019-01-08T11:18:42.094Z,40.98
2019-01-08T11:19:42.190Z,40.93
2019-01-08T11:20:42.155Z,40.88
2019-01-08T11:21:42.311Z,40.90
2019-01-08T11:22:42.213Z,40.67
2019-01-08T11:23:42.242Z,40.17
2019-01-08T11:24:42.465Z,39.88
2019-01-08T11:25:42.306Z,39.94
2019-01-08T11:26:42.348Z,40.00
2019-01-08T11:27:42.374Z,40.10
2019-01-08T11:28:43.280Z,40.29
2019-01-08T11:29:42.570Z,40.49
2019-01-08T11:30:42.551Z,40.40
2019-01-08T11:31:48.799Z,40.77
2019-01-08T11:32:42.473Z,41.30
2019-01-08T11:33:42.509Z,41.60
2019-01-08T11:34:42.648Z,41.80
2019-01-08T11:35:42.567Z,41.86
2019-01-08T11:36:42.713Z,41.65
2019-01-08T11:37:42.613Z,41.53
2019-01-08T11:38:42.654Z,41.34
2019-01-08T11:39:42.874Z,40.71
2019-01-08T11:40:42.726Z,40.49
2019-01-08T11:41:42.747Z,40.73
2019-01-08T11:42:42.775Z,40.46
2019-01-08T11:43:42.781Z,40.40
2019-01-08T11:44:42.883Z,40.43
2019-01-08T11:45:42.867Z,40.23
2019-01-08T11:46:42.930Z,40.42
2019-01-08T11:47:42.903Z,40.88
2019-01-08T11:48:42.918Z,41.41
2019-01-08T11:49:43.126Z,41.55
2019-01-08T11:50:43.114Z,41.55
2019-01-08T11:51:43.020Z,41.65
2019-01-08T11:52:43.077Z,41.64
2019-01-08T11:53:43.079Z,41.61
2019-01-08T11:54:43.242Z,41.41
2019-01-08T11:55:43.135Z,40.99
2019-01-08T11:56:43.149Z,40.95
2019-01-08T11:57:43.181Z,40.89
2019-01-08T11:58:43.192Z,41.20
2019-01-08T11:59:43.365Z,41.52
2019-01-08T12:00:43.268Z,41.90
2019-01-08T12:01:43.273Z,42.41
2019-01-08T12:02:47.707Z,42.96
2019-01-08T12:03:43.335Z,43.14
2019-01-08T12:04:43.463Z,43.62
2019-01-08T12:05:43.392Z,43.92
2019-01-08T12:06:43.421Z,44.06
2019-01-08T12:07:43.439Z,44.09
2019-01-08T12:08:43.476Z,44.10
2019-01-08T12:09:43.729Z,43.87
2019-01-08T12:10:43.538Z,43.80
2019-01-08T12:11:43.563Z,43.77
2019-01-08T12:12:43.595Z,43.58
2019-01-08T12:13:43.631Z,43.28
2019-01-08T12:14:43.738Z,43.15
2019-01-08T12:15:43.695Z,43.25
2019-01-08T12:16:43.706Z,43.11
2019-01-08T12:17:43.729Z,42.44
2019-01-08T12:18:43.889Z,42.28
2019-01-08T12:19:44.015Z,42.71
2019-01-08T12:20:43.815Z,43.09
2019-01-08T12:21:43.840Z,43.19
2019-01-08T12:22:43.873Z,43.32
2019-01-08T12:23:44.037Z,43.49
2019-01-08T12:24:44.161Z,43.41
2019-01-08T12:25:43.963Z,43.38
2019-01-08T12:26:44.128Z,43.72
2019-01-08T12:27:44.072Z,44.04
2019-01-08T12:28:44.058Z,44.37
2019-01-08T12:29:44.182Z,44.52
2019-01-08T12:30:44.119Z,44.68
2019-01-08T12:31:44.140Z,45.10
2019-01-08T12:32:44.177Z,45.08
2019-01-08T12:33:44.334Z,44.96
2019-01-08T12:34:44.467Z,45.02
2019-01-08T12:35:44.396Z,44.94
2019-01-08T12:36:44.303Z,45.18
2019-01-08T12:37:44.457Z,45.35
2019-01-08T12:38:44.376Z,45.45
2019-01-08T12:39:44.615Z,45.24
2019-01-08T12:40:44.548Z,44.79
2019-01-08T12:41:44.579Z,44.62
2019-01-08T12:42:44.475Z,44.72
2019-01-08T12:43:44.506Z,44.70
2019-01-08T12:44:44.817Z,44.59
2019-01-08T12:45:44.564Z,44.64
2019-01-08T12:46:44.604Z,44.86
2019-01-08T12:47:44.639Z,45.20
2019-01-08T12:48:44.674Z,45.10
2019-01-08T12:49:44.926Z,45.10
2019-01-08T12:50:44.736Z,45.55
2019-01-08T12:51:44.762Z,45.66
2019-01-08T12:52:44.793Z,45.43
2019-01-08T12:53:44.945Z,45.26